createdAt,value
2022-08-26T00:01:14.925Z,10.77
2022-08-26T00:06:16.368Z,8.77
2022-08-26T00:11:26.334Z,7.28
2022-08-26T00:16:29.165Z,9.77
2022-08-26T00:21:30.597Z,10.50
2022-08-26T00:26:34.650Z,6.88
2022-08-26T00:31:36.140Z,9.20
2022-08-26T00:36:39.608Z,9.80
2022-08-26T00:41:42.204Z,10.93
2022-08-26T00:46:46.943Z,6.80
2022-08-26T00:51:53.373Z,6.93
2022-08-26T00:57:00.347Z,10.95
2022-08-26T01:02:02.828Z,7.55
2022-08-26T01:07:04.495Z,9.95
2022-08-26T01:12:05.948Z,6.43
2022-08-26T01:17:08.144Z,8.55
2022-08-26T01:22:20.289Z,8.82
2022-08-26T01:27:22.908Z,8.82
2022-08-26T01:32:25.645Z,8.38
2022-08-26T01:37:29.178Z,9.15
2022-08-26T01:42:30.640Z,8.68
2022-08-26T01:47:32.121Z,7.88
2022-08-26T01:52:33.533Z,12.07
2022-08-26T01:57:35.077Z,11.35
2022-08-26T02:02:37.034Z,9.57
2022-08-26T02:07:38.814Z,11.70
2022-08-26T02:12:40.217Z,8.23
2022-08-26T02:17:43.633Z,8.63
2022-08-26T02:22:45.380Z,9.30
2022-08-26T02:27:46.957Z,7.72
2022-08-26T02:32:49.640Z,8.82
2022-08-26T02:37:51.832Z,9.38
2022-08-26T02:42:56.970Z,6.85
2022-08-26T02:47:58.680Z,7.97
2022-08-26T02:53:01.353Z,10.00
2022-08-26T02:58:04.247Z,7.90
2022-08-26T03:03:05.698Z,7.03
2022-08-26T03:08:07.160Z,6.57
2022-08-26T03:13:08.660Z,8.38
2022-08-26T03:18:10.930Z,6.78
2022-08-26T03:23:12.966Z,7.10
2022-08-26T03:28:14.372Z,5.60
2022-08-26T03:33:20.081Z,8.27
2022-08-26T03:38:22.470Z,5.95
2022-08-26T03:43:26.657Z,7.18
2022-08-26T03:48:28.064Z,7.20
2022-08-26T03:53:29.496Z,7.72
2022-08-26T03:58:32.005Z,9.10
2022-08-26T04:03:52.021Z,10.27
2022-08-26T04:08:56.604Z,7.95
2022-08-26T04:13:59.418Z,9.37
2022-08-26T04:19:01.178Z,7.95
2022-08-26T04:24:03.596Z,8.73
2022-08-26T04:29:07.528Z,9.10
2022-08-26T04:34:11.060Z,7.35
2022-08-26T04:39:16.377Z,7.03
2022-08-26T04:44:17.791Z,7.60
2022-08-26T04:49:19.212Z,7.40
2022-08-26T04:54:20.655Z,8.75
2022-08-26T04:59:22.172Z,7.88
2022-08-26T05:04:23.662Z,10.70
2022-08-26T05:09:25.313Z,11.68
2022-08-26T05:14:26.713Z,7.85
2022-08-26T05:19:28.413Z,7.80
2022-08-26T05:24:30.124Z,7.93
2022-08-26T05:29:31.556Z,9.27
2022-08-26T05:34:32.985Z,7.60
2022-08-26T05:39:34.402Z,8.88
2022-08-26T05:44:54.009Z,9.90
2022-08-26T05:49:57.200Z,6.50
2022-08-26T05:54:58.595Z,6.40
2022-08-26T06:00:00.211Z,7.75
2022-08-26T06:05:02.476Z,7.93
2022-08-26T06:10:30.549Z,9.77
2022-08-26T06:15:26.485Z,7.25
2022-08-26T06:20:31.306Z,7.85
2022-08-26T06:25:40.050Z,9.30
2022-08-26T06:30:41.560Z,6.88
2022-08-26T06:35:43.464Z,7.03
2022-08-26T06:40:49.760Z,14.48
2022-08-26T06:45:51.840Z,9.52
2022-08-26T06:51:08.993Z,10.02
2022-08-26T06:56:10.475Z,6.85
2022-08-26T07:01:18.226Z,7.45
2022-08-26T07:06:21.324Z,7.20
2022-08-26T07:11:22.809Z,7.03
2022-08-26T07:16:25.724Z,11.73
2022-08-26T07:21:28.921Z,10.50
2022-08-26T07:26:31.625Z,14.23
2022-08-26T07:31:39.445Z,8.27
2022-08-26T07:36:44.437Z,10.75
2022-08-26T07:41:47.692Z,11.75
2022-08-26T07:46:53.267Z,11.50
2022-08-26T07:51:55.194Z,11.20
2022-08-26T07:56:56.633Z,9.88
2022-08-26T08:01:59.600Z,11.93
2022-08-26T08:07:01.040Z,9.65
2022-08-26T08:12:04.293Z,10.27
2022-08-26T08:17:05.918Z,14.73
2022-08-26T08:22:17.471Z,11.40
2022-08-26T08:27:23.774Z,14.15
2022-08-26T08:32:25.654Z,13.90
2022-08-26T08:37:27.403Z,17.38
2022-08-26T08:42:49.995Z,16.35
2022-08-26T08:47:54.764Z,15.30
2022-08-26T08:53:16.742Z,16.23
2022-08-26T08:58:51.328Z,11.50
2022-08-26T09:04:17.201Z,12.25
2022-08-26T09:09:31.828Z,13.00
2022-08-26T09:14:33.241Z,12.27
2022-08-26T09:20:09.484Z,14.48
2022-08-26T09:25:12.658Z,14.35
2022-08-26T09:30:33.051Z,14.73
2022-08-26T09:35:41.858Z,14.15
2022-08-26T09:40:45.144Z,12.90
2022-08-26T09:45:50.811Z,12.82
2022-08-26T09:51:00.129Z,15.98
2022-08-26T09:56:17.484Z,11.45
2022-08-26T10:01:34.831Z,16.65
2022-08-26T10:06:54.568Z,14.65
2022-08-26T10:11:57.646Z,16.13
2022-08-26T10:17:01.991Z,13.35
2022-08-26T10:22:06.309Z,12.45
2022-08-26T10:27:15.164Z,11.45
2022-08-26T10:32:27.916Z,10.05
2022-08-26T10:37:37.734Z,11.88
2022-08-26T10:42:44.592Z,12.18
2022-08-26T10:47:48.708Z,9.77
2022-08-26T10:53:13.824Z,13.70
2022-08-26T10:58:27.561Z,13.32
2022-08-26T11:03:28.966Z,11.73
2022-08-26T11:08:30.574Z,9.43
2022-08-26T11:13:56.865Z,10.57
2022-08-26T11:24:46.589Z,12.48
2022-08-26T11:30:29.892Z,12.73
2022-08-26T11:35:34.088Z,10.80
2022-08-26T11:40:40.380Z,13.65
2022-08-26T11:45:45.582Z,9.03
2022-08-26T11:51:08.462Z,10.35
2022-08-26T11:56:24.346Z,10.00
2022-08-26T12:01:48.934Z,8.82
2022-08-26T12:06:51.057Z,9.93
2022-08-26T12:11:54.009Z,7.40
2022-08-26T12:17:11.672Z,10.85
2022-08-26T12:22:23.637Z,8.45
2022-08-26T12:27:30.663Z,11.73
2022-08-26T12:32:32.743Z,12.25
2022-08-26T12:37:35.220Z,8.90
2022-08-26T12:42:41.197Z,10.00
2022-08-26T12:53:03.695Z,8.55
2022-08-26T12:58:25.947Z,7.35
2022-08-26T13:03:45.288Z,7.93
2022-08-26T13:08:48.312Z,10.60
2022-08-26T13:13:53.884Z,9.02
2022-08-26T13:18:58.755Z,9.45
2022-08-26T13:24:14.820Z,7.05
2022-08-26T13:29:16.383Z,8.02
2022-08-26T13:34:21.012Z,8.48
2022-08-26T13:39:22.738Z,7.23
2022-08-26T13:44:24.415Z,10.15
2022-08-26T13:49:25.923Z,8.20
2022-08-26T13:54:27.466Z,6.78
2022-08-26T13:59:28.990Z,8.15
2022-08-26T14:04:30.487Z,7.45
2022-08-26T14:09:35.402Z,5.38
2022-08-26T14:14:39.385Z,5.20
2022-08-26T14:19:41.127Z,9.65
2022-08-26T14:24:42.712Z,9.23
2022-08-26T14:29:44.274Z,6.40
2022-08-26T14:34:45.783Z,7.55
2022-08-26T14:39:47.315Z,7.00
2022-08-26T14:44:51.739Z,7.53
2022-08-26T14:49:53.267Z,5.40
2022-08-26T14:54:54.840Z,6.78
2022-08-26T14:59:57.285Z,5.95
2022-08-26T15:04:58.779Z,5.35
2022-08-26T15:10:00.327Z,6.40
2022-08-26T15:15:01.899Z,8.25
2022-08-26T15:20:04.531Z,9.20
2022-08-26T15:25:06.766Z,7.55
2022-08-26T15:30:09.999Z,6.57
2022-08-26T15:35:11.559Z,6.22
2022-08-26T15:40:13.183Z,6.53
2022-08-26T15:45:25.867Z,5.13
2022-08-26T15:50:28.933Z,9.30
2022-08-26T15:55:30.438Z,5.47
2022-08-26T16:00:31.931Z,6.00
2022-08-26T16:05:39.001Z,4.60
2022-08-26T16:10:46.589Z,4.03
2022-08-26T16:15:50.927Z,6.43
2022-08-26T16:21:08.770Z,4.13
2022-08-26T16:26:16.713Z,4.38
2022-08-26T16:31:18.286Z,4.28
2022-08-26T16:36:19.911Z,4.72
2022-08-26T16:41:21.627Z,5.45
2022-08-26T16:46:25.524Z,4.13
2022-08-26T16:51:27.562Z,4.00
2022-08-26T16:56:33.715Z,4.88
2022-08-26T17:01:36.018Z,5.30
2022-08-26T17:06:38.124Z,5.50
2022-08-26T17:11:39.622Z,7.63
2022-08-26T17:16:41.131Z,5.10
2022-08-26T17:21:42.671Z,5.45
2022-08-26T17:26:44.337Z,9.38
2022-08-26T17:31:49.844Z,6.00
2022-08-26T17:36:51.241Z,5.30
2022-08-26T17:41:52.646Z,5.85
2022-08-26T17:46:54.706Z,7.88
2022-08-26T17:51:58.345Z,4.25
2022-08-26T17:57:00.907Z,5.55
2022-08-26T18:02:02.355Z,4.93
2022-08-26T18:07:03.878Z,6.13
2022-08-26T18:12:05.416Z,6.65
2022-08-26T18:17:07.679Z,6.32
2022-08-26T18:22:09.097Z,5.35
2022-08-26T18:27:16.973Z,7.07
2022-08-26T18:32:18.369Z,5.22
2022-08-26T18:37:19.773Z,4.28
2022-08-26T18:42:21.244Z,4.80
2022-08-26T18:47:22.769Z,7.07
2022-08-26T18:52:24.193Z,5.38
2022-08-26T18:57:25.634Z,5.10
2022-08-26T19:02:27.179Z,6.75
2022-08-26T19:07:34.580Z,7.20
2022-08-26T19:12:38.285Z,8.07
2022-08-26T19:17:39.876Z,5.43
2022-08-26T19:22:41.277Z,6.05
2022-08-26T19:27:42.749Z,6.95
2022-08-26T19:32:44.416Z,4.53
2022-08-26T19:37:45.928Z,4.20
2022-08-26T19:42:47.365Z,4.63
2022-08-26T19:47:48.760Z,6.22
2022-08-26T19:52:50.155Z,3.95
2022-08-26T19:57:54.560Z,7.05
2022-08-26T20:02:56.464Z,5.38
2022-08-26T20:07:57.909Z,4.53
2022-08-26T20:12:59.310Z,7.35
2022-08-26T20:18:00.736Z,4.82
2022-08-26T20:23:03.553Z,4.70
2022-08-26T20:28:05.191Z,5.43
2022-08-26T20:33:06.679Z,5.78
2022-08-26T20:38:10.396Z,9.32
2022-08-26T20:43:12.107Z,4.93
2022-08-26T20:48:13.608Z,5.68
2022-08-26T20:53:15.111Z,6.00
2022-08-26T20:58:16.627Z,6.68
2022-08-26T21:03:18.144Z,8.32
2022-08-26T21:08:19.631Z,6.15
2022-08-26T21:13:21.169Z,7.40
2022-08-26T21:18:22.678Z,6.40
2022-08-26T21:23:28.694Z,5.53
2022-08-26T21:28:30.950Z,7.15
2022-08-26T21:33:32.529Z,4.82
2022-08-26T21:38:34.299Z,3.63
2022-08-26T21:43:36.608Z,5.60
2022-08-26T21:48:39.046Z,6.25
2022-08-26T21:53:40.636Z,5.40
2022-08-26T21:58:42.170Z,4.53
2022-08-26T22:03:46.754Z,4.28
2022-08-26T22:13:50.633Z,4.63
2022-08-26T22:18:53.314Z,4.80
2022-08-26T22:23:56.236Z,4.70
2022-08-26T22:28:59.876Z,5.40
2022-08-26T22:34:01.623Z,4.72
2022-08-26T22:39:04.096Z,3.45
2022-08-26T22:44:05.594Z,3.45
2022-08-26T22:49:08.560Z,4.53
2022-08-26T22:54:10.171Z,4.57
2022-08-26T22:59:11.930Z,4.07
2022-08-26T23:04:13.464Z,6.43
2022-08-26T23:09:17.028Z,3.28
2022-08-26T23:14:18.670Z,4.05
2022-08-26T23:19:21.601Z,3.20
2022-08-26T23:24:23.290Z,3.35
2022-08-26T23:29:24.803Z,3.45
2022-08-26T23:34:44.547Z,4.78
2022-08-26T23:39:47.431Z,2.88
2022-08-26T23:44:49.050Z,4.93
2022-08-26T23:49:51.366Z,4.00
2022-08-26T23:54:52.936Z,4.50
2022-08-26T23:59:54.426Z,3.58
